Time;durP1;ratioP1;P1;durP2;ratioP2;P2;SDS_P1;SDS_P2;PMS_P1;PMS_P2;Temp;Humidity;BMP_temperature;BMP_pressure;BME280_temperature;BME280_humidity;BME280_pressure;Samples;Min_cycle;Max_cycle;Signal;HPM_P1;HPM_P2
2024/02/13 00:00:11;;;;;;;7.72;2.38;;;;;;;3.49;100.00;97124.97;5026725;28;20122;-57
2024/02/13 00:02:39;;;;;;;7.03;1.70;;;;;;;3.53;100.00;97137.94;5019634;28;20045;-59
2024/02/13 00:05:08;;;;;;;3.95;1.20;;;;;;;3.58;100.00;97138.13;5018704;28;20138;-58
2024/02/13 00:07:38;;;;;;;3.90;1.50;;;;;;;3.74;100.00;97142.16;5014245;28;20069;-58
2024/02/13 00:10:10;;;;;;;7.80;1.80;;;;;;;3.85;100.00;97140.66;5018416;28;20045;-58
2024/02/13 00:12:38;;;;;;;4.18;1.10;;;;;;;3.95;100.00;97146.41;5018716;28;20041;-58
2024/02/13 00:15:05;;;;;;;7.32;1.38;;;;;;;3.93;100.00;97150.28;5021733;28;20052;-58
2024/02/13 00:17:34;;;;;;;8.10;1.33;;;;;;;4.00;100.00;97159.97;5009826;28;20548;-58
2024/02/13 00:20:04;;;;;;;6.65;1.50;;;;;;;4.05;100.00;97159.31;5026021;28;20045;-58
2024/02/13 00:22:35;;;;;;;7.82;1.77;;;;;;;4.08;100.00;97163.41;5009999;28;20042;-57
2024/02/13 00:25:02;;;;;;;5.53;1.25;;;;;;;4.10;100.00;97166.72;5028693;28;20045;-58
2024/02/13 00:27:32;;;;;;;10.05;1.42;;;;;;;4.15;100.00;97169.56;5026039;28;20050;-57
2024/02/13 00:30:02;;;;;;;6.93;1.10;;;;;;;4.21;100.00;97173.22;5021642;28;20164;-57
2024/02/13 00:32:29;;;;;;;7.88;1.40;;;;;;;4.13;100.00;97177.00;5021949;28;20177;-58
2024/02/13 00:34:56;;;;;;;6.68;1.27;;;;;;;4.07;100.00;97184.03;5025160;28;20042;-59
2024/02/13 00:37:23;;;;;;;3.55;1.13;;;;;;;4.16;100.00;97187.25;5017595;28;20052;-56
2024/02/13 00:39:50;;;;;;;6.40;1.30;;;;;;;4.23;100.00;97192.59;5019961;28;20042;-58
2024/02/13 00:42:17;;;;;;;6.57;1.60;;;;;;;4.15;100.00;97199.88;5014494;28;20052;-58
2024/02/13 00:44:43;;;;;;;7.43;1.40;;;;;;;4.07;100.00;97204.63;5013383;28;20051;-58
2024/02/13 00:47:10;;;;;;;7.13;1.40;;;;;;;4.02;100.00;97207.97;5022232;28;20124;-58
2024/02/13 00:49:37;;;;;;;5.20;1.35;;;;;;;3.97;100.00;97215.81;5018200;28;20408;-58
2024/02/13 00:52:06;;;;;;;7.50;1.27;;;;;;;3.80;100.00;97213.63;5024623;28;20139;-58
2024/02/13 00:54:33;;;;;;;6.78;1.63;;;;;;;3.88;100.00;97223.28;5021319;28;20051;-58
2024/02/13 00:56:59;;;;;;;5.60;1.25;;;;;;;3.81;100.00;97217.94;5024343;28;20590;-57
2024/02/13 00:59:26;;;;;;;9.15;1.85;;;;;;;3.60;100.00;97227.06;5020861;28;20073;-57
2024/02/13 01:01:52;;;;;;;6.57;1.48;;;;;;;3.48;100.00;97229.59;5019180;28;20060;-57
2024/02/13 01:04:19;;;;;;;7.93;1.65;;;;;;;3.48;100.00;97232.25;5024009;28;20038;-56
2024/02/13 01:06:46;;;;;;;4.88;1.40;;;;;;;3.60;100.00;97235.94;5022546;28;20709;-58
2024/02/13 01:09:12;;;;;;;9.20;1.58;;;;;;;3.72;100.00;97240.66;5018552;28;20633;-58
2024/02/13 01:11:39;;;;;;;8.20;1.92;;;;;;;3.61;100.00;97234.91;5018646;28;20045;-56
2024/02/13 01:14:07;;;;;;;4.75;1.23;;;;;;;3.64;100.00;97244.38;5011096;28;20034;-57
2024/02/13 01:16:33;;;;;;;6.00;1.48;;;;;;;3.62;100.00;97241.88;5019802;28;20536;-56
2024/02/13 01:19:00;;;;;;;6.50;1.75;;;;;;;3.62;100.00;97246.44;5028479;28;20045;-58
2024/02/13 01:21:27;;;;;;;4.53;1.40;;;;;;;3.62;100.00;97246.44;5021491;28;20106;-56
2024/02/13 01:23:53;;;;;;;5.13;1.40;;;;;;;3.55;100.00;97241.09;5022726;28;20062;-55
2024/02/13 01:26:21;;;;;;;4.15;1.40;;;;;;;3.49;100.00;97244.59;5017888;28;20046;-58
2024/02/13 01:28:47;;;;;;;5.13;1.40;;;;;;;3.48;100.00;97243.81;5019858;28;20926;-56
2024/02/13 01:31:14;;;;;;;7.78;2.00;;;;;;;3.30;100.00;97244.44;5021760;28;20052;-56
2024/02/13 01:33:41;;;;;;;7.47;1.58;;;;;;;3.12;100.00;97253.09;5022642;28;20048;-58
2024/02/13 01:36:09;;;;;;;7.90;2.15;;;;;;;3.02;100.00;97253.50;5025167;28;20033;-58
2024/02/13 01:38:37;;;;;;;5.15;2.00;;;;;;;3.09;100.00;97266.88;5022228;28;20587;-58
2024/02/13 01:41:04;;;;;;;5.90;2.03;;;;;;;3.24;100.00;97254.13;5010399;28;20061;-57
2024/02/13 01:43:31;;;;;;;11.00;1.65;;;;;;;3.39;100.00;97263.75;5018830;28;20032;-57
2024/02/13 01:46:01;;;;;;;7.55;1.70;;;;;;;3.45;100.00;97272.81;5019399;28;20117;-56
2024/02/13 01:48:29;;;;;;;5.55;1.40;;;;;;;3.35;100.00;97271.41;5020318;28;20041;-57
2024/02/13 01:50:57;;;;;;;5.25;1.55;;;;;;;3.35;100.00;97271.41;5021401;28;20057;-56
2024/02/13 01:53:27;;;;;;;13.70;2.53;;;;;;;3.36;100.00;97277.59;5018255;28;20182;-55
2024/02/13 01:55:56;;;;;;;14.43;2.30;;;;;;;3.30;100.00;97284.59;5017906;28;20034;-57
2024/02/13 01:58:23;;;;;;;8.82;1.45;;;;;;;3.24;100.00;97283.56;5023820;28;20042;-57
2024/02/13 02:00:59;;;;;;;6.53;1.50;;;;;;;3.27;100.00;97284.19;5023466;28;20727;-58
2024/02/13 02:03:34;;;;;;;5.40;1.40;;;;;;;3.28;100.00;97288.50;5026280;28;20052;-57
2024/02/13 02:06:03;;;;;;;4.60;2.08;;;;;;;3.26;100.00;97283.34;5013783;28;20045;-56
2024/02/13 02:08:30;;;;;;;9.38;1.73;;;;;;;3.25;100.00;97290.56;5018222;28;20029;-57
2024/02/13 02:10:57;;;;;;;8.52;1.73;;;;;;;3.21;100.00;97291.19;5024424;28;20056;-58
2024/02/13 02:13:26;;;;;;;5.22;1.48;;;;;;;3.16;100.00;97280.28;5016761;28;20042;-55
2024/02/13 02:15:54;;;;;;;5.00;1.30;;;;;;;3.10;100.00;97288.09;5008135;28;20048;-57
2024/02/13 02:18:21;;;;;;;4.85;1.38;;;;;;;2.95;100.00;97290.16;5022108;28;20199;-57
2024/02/13 02:20:48;;;;;;;9.25;1.88;;;;;;;2.75;100.00;97292.78;5024428;28;20045;-56
2024/02/13 02:23:18;;;;;;;5.03;1.60;;;;;;;2.70;100.00;97288.88;5014816;28;20640;-58
2024/02/13 02:25:46;;;;;;;8.77;1.80;;;;;;;2.90;100.00;97296.09;5022003;28;20521;-58
2024/02/13 02:28:15;;;;;;;6.45;1.50;;;;;;;2.81;100.00;97294.66;5025015;28;20789;-56
2024/02/13 02:30:42;;;;;;;8.35;1.80;;;;;;;2.78;100.00;97303.06;5021263;28;20049;-57
2024/02/13 02:33:09;;;;;;;5.88;1.75;;;;;;;2.85;100.00;97303.91;5024039;28;20041;-57
2024/02/13 02:35:35;;;;;;;4.50;1.73;;;;;;;3.01;100.00;97307.22;5025128;28;20053;-57
2024/02/13 02:38:02;;;;;;;10.73;1.95;;;;;;;3.11;100.00;97313.84;5029216;28;20041;-57
2024/02/13 02:40:29;;;;;;;4.13;1.88;;;;;;;3.20;100.00;97316.28;5015766;28;20117;-57
2024/02/13 02:42:55;;;;;;;5.65;1.50;;;;;;;3.31;100.00;97317.53;5018212;28;20042;-57
2024/02/13 02:45:22;;;;;;;5.00;1.92;;;;;;;3.36;100.00;97317.72;5022034;28;20091;-55
2024/02/13 02:47:49;;;;;;;13.90;2.90;;;;;;;3.43;100.00;97323.88;5021405;28;20038;-54
2024/02/13 02:50:16;;;;;;;5.63;2.25;;;;;;;3.47;100.00;97322.44;5026564;28;20520;-57
2024/02/13 02:52:43;;;;;;;12.60;2.33;;;;;;;3.50;100.00;97326.56;5018619;28;20046;-57
2024/02/13 02:55:10;;;;;;;12.50;2.75;;;;;;;3.55;100.00;97325.94;5023168;28;20042;-57
2024/02/13 02:57:38;;;;;;;12.00;2.40;;;;;;;3.51;100.00;97329.03;5028365;28;20045;-58
2024/02/13 03:00:10;;;;;;;4.78;2.05;;;;;;;3.48;100.00;97323.28;5028447;28;20049;-58
2024/02/13 03:02:37;;;;;;;7.40;2.33;;;;;;;3.44;100.00;97330.91;5025655;28;20638;-58
2024/02/13 03:05:05;;;;;;;6.80;1.98;;;;;;;3.44;100.00;97336.25;5021541;28;20622;-58
2024/02/13 03:07:32;;;;;;;5.75;1.95;;;;;;;3.47;100.00;97337.69;5017881;28;20142;-58
2024/02/13 03:09:58;;;;;;;7.95;1.90;;;;;;;3.53;100.00;97338.72;5023465;28;20127;-58
2024/02/13 03:12:25;;;;;;;9.10;2.22;;;;;;;3.50;100.00;97340.78;5025766;28;20420;-58
2024/02/13 03:14:52;;;;;;;7.20;2.05;;;;;;;3.56;100.00;97339.13;5028195;28;20069;-58
2024/02/13 03:17:22;;;;;;;9.80;2.20;;;;;;;3.50;100.00;97339.94;5023999;28;20041;-57
2024/02/13 03:19:49;;;;;;;6.68;1.83;;;;;;;3.58;100.00;97342.41;5024251;28;20060;-57
2024/02/13 03:22:19;;;;;;;6.05;2.10;;;;;;;3.60;100.00;97342.19;5022086;28;20056;-58
2024/02/13 03:24:46;;;;;;;13.90;2.35;;;;;;;3.66;100.00;97349.41;5023007;28;20072;-58
2024/02/13 03:27:14;;;;;;;7.75;2.00;;;;;;;3.61;100.00;97358.06;5018472;28;20095;-57
2024/02/13 03:29:41;;;;;;;6.28;2.33;;;;;;;3.53;100.00;97350.25;5021907;28;20455;-58
2024/02/13 03:32:08;;;;;;;5.45;2.30;;;;;;;3.52;100.00;97348.59;5022973;28;20045;-58
2024/02/13 03:34:34;;;;;;;6.30;2.58;;;;;;;3.25;100.00;97354.78;5024202;28;20049;-56
2024/02/13 03:37:01;;;;;;;6.63;2.50;;;;;;;3.15;100.00;97354.38;5021256;28;20424;-58
2024/02/13 03:39:28;;;;;;;7.07;2.80;;;;;;;3.37;100.00;97362.19;5022566;28;20037;-54
2024/02/13 03:41:55;;;;;;;6.90;2.20;;;;;;;3.48;100.00;97358.06;5019430;28;20064;-55
2024/02/13 03:44:23;;;;;;;7.80;2.10;;;;;;;3.55;100.00;97363.44;5024096;28;20037;-53
2024/02/13 03:46:50;;;;;;;9.95;2.40;;;;;;;3.64;100.00;97367.53;5019705;28;20059;-56
2024/02/13 03:49:17;;;;;;;9.18;2.17;;;;;;;3.75;100.00;97368.75;5019624;28;20455;-57
2024/02/13 03:51:43;;;;;;;7.25;1.77;;;;;;;3.79;100.00;97370.00;5017777;28;20057;-58
2024/02/13 03:54:10;;;;;;;6.53;2.42;;;;;;;3.67;100.00;97371.66;5026506;28;20041;-57
2024/02/13 03:56:37;;;;;;;7.82;2.30;;;;;;;3.68;100.00;97370.63;5022488;28;20301;-57
2024/02/13 03:59:05;;;;;;;8.02;2.42;;;;;;;3.67;100.00;97372.47;5028307;28;20120;-57
2024/02/13 04:01:31;;;;;;;7.95;2.90;;;;;;;3.64;100.00;97371.03;5014786;28;20108;-56
2024/02/13 04:03:58;;;;;;;8.70;2.47;;;;;;;3.63;100.00;97379.28;5016248;28;20049;-56
2024/02/13 04:06:25;;;;;;;4.55;2.00;;;;;;;3.56;100.00;97383.81;5020858;28;20551;-57
2024/02/13 04:08:52;;;;;;;7.80;2.38;;;;;;;3.32;100.00;97384.22;5017916;28;20046;-53
2024/02/13 04:11:19;;;;;;;5.30;2.33;;;;;;;3.20;100.00;97385.84;5027007;28;20698;-56
2024/02/13 04:13:46;;;;;;;8.82;2.20;;;;;;;3.20;100.00;97389.34;5022211;28;20506;-57
2024/02/13 04:16:13;;;;;;;5.70;2.50;;;;;;;3.17;100.00;97387.09;5019926;28;20049;-57
2024/02/13 04:18:40;;;;;;;8.68;2.65;;;;;;;3.21;100.00;97390.19;5017804;28;20072;-55
2024/02/13 04:21:15;;;;;;;7.25;2.13;;;;;;;3.44;100.00;97400.50;5023173;28;20044;-56
2024/02/13 04:23:46;;;;;;;8.77;2.75;;;;;;;3.37;100.00;97392.47;5018131;28;20523;-56
2024/02/13 04:26:12;;;;;;;4.68;2.10;;;;;;;3.45;100.00;97390.59;5016264;28;20061;-58
2024/02/13 04:28:56;;;;;;;10.55;3.58;;;;;;;3.50;100.00;97391.63;5021389;28;20157;-58
2024/02/13 04:31:23;;;;;;;7.78;2.33;;;;;;;3.48;100.00;97396.38;5020428;28;20432;-57
2024/02/13 04:33:50;;;;;;;8.60;2.72;;;;;;;3.53;100.00;97395.75;5017656;28;20497;-58
2024/02/13 04:36:17;;;;;;;5.75;2.78;;;;;;;3.55;100.00;97398.22;5015307;28;20033;-58
2024/02/13 04:38:44;;;;;;;6.80;2.75;;;;;;;3.69;100.00;97401.75;5019572;28;20048;-57
2024/02/13 04:41:11;;;;;;;11.48;2.60;;;;;;;3.78;100.00;97405.84;5018751;28;20041;-58
2024/02/13 04:43:37;;;;;;;7.32;2.65;;;;;;;3.64;100.00;97408.53;5027400;28;20718;-57
2024/02/13 04:46:04;;;;;;;7.32;2.78;;;;;;;3.56;100.00;97406.06;5016899;28;20675;-56
2024/02/13 04:48:30;;;;;;;7.47;2.20;;;;;;;3.52;100.00;97407.50;5020134;28;20045;-56
2024/02/13 04:50:57;;;;;;;5.35;2.25;;;;;;;3.50;100.00;97414.91;5018328;28;20041;-56
2024/02/13 04:53:24;;;;;;;9.15;2.90;;;;;;;3.47;100.00;97409.97;5030099;28;20044;-57
2024/02/13 04:55:50;;;;;;;9.73;3.05;;;;;;;3.42;100.00;97410.59;5018269;28;20096;-57
2024/02/13 04:58:20;;;;;;;7.35;2.80;;;;;;;3.43;100.00;97406.88;5025055;28;20047;-57
2024/02/13 05:00:51;;;;;;;6.88;2.95;;;;;;;3.43;100.00;97406.88;5016985;28;20052;-57
2024/02/13 05:03:27;;;;;;;8.93;3.78;;;;;;;3.43;100.00;97406.88;5012803;28;20044;-57
2024/02/13 05:08:43;;;;;;;6.25;2.83;;;;;;;3.47;100.00;97409.97;5023208;28;20049;-58
2024/02/13 05:11:10;;;;;;;5.63;2.25;;;;;;;3.49;100.00;97414.09;5023361;28;20553;-58
2024/02/13 05:13:38;;;;;;;7.70;2.53;;;;;;;3.60;100.00;97419.84;5013426;28;20556;-58
2024/02/13 05:16:06;;;;;;;6.70;2.20;;;;;;;3.76;100.00;97413.28;5026297;28;20029;-58
2024/02/13 05:18:32;;;;;;;7.32;2.03;;;;;;;3.86;100.00;97413.66;5019916;28;20045;-58
2024/02/13 05:20:59;;;;;;;6.70;2.17;;;;;;;3.95;100.00;97410.78;5009642;28;20494;-57
2024/02/13 05:23:26;;;;;;;8.15;2.65;;;;;;;4.02;100.00;97406.25;5028123;28;20033;-58
2024/02/13 05:25:57;;;;;;;6.13;3.05;;;;;;;3.98;100.00;97407.69;5023244;28;20049;-57
2024/02/13 05:28:23;;;;;;;6.00;2.92;;;;;;;3.95;100.00;97408.09;5018450;28;20501;-54
2024/02/13 05:30:50;;;;;;;9.98;2.58;;;;;;;4.00;100.00;97416.34;5015407;28;20046;-58
2024/02/13 05:33:16;;;;;;;8.55;2.60;;;;;;;3.94;100.00;97417.97;5019451;28;20065;-56
2024/02/13 05:35:46;;;;;;;7.97;2.42;;;;;;;3.95;100.00;97414.28;5022449;28;20133;-58
2024/02/13 05:38:13;;;;;;;5.85;2.20;;;;;;;3.87;100.00;97406.47;5024122;28;20121;-58
2024/02/13 05:40:42;;;;;;;5.43;1.95;;;;;;;3.85;100.00;97405.84;5022736;28;20128;-57
2024/02/13 05:43:11;;;;;;;7.53;1.95;;;;;;;3.83;100.00;97413.28;5024952;28;20390;-58
2024/02/13 05:45:37;;;;;;;3.22;1.77;;;;;;;3.86;100.00;97415.53;5022304;28;20044;-56
2024/02/13 05:48:04;;;;;;;3.90;1.92;;;;;;;4.03;100.00;97413.25;5023828;28;20045;-56
2024/02/13 05:50:31;;;;;;;6.95;2.20;;;;;;;3.94;100.00;97417.19;5018712;28;20632;-57
2024/02/13 05:52:57;;;;;;;6.80;2.13;;;;;;;3.87;100.00;97427.91;5024126;28;20076;-58
2024/02/13 05:55:24;;;;;;;6.97;2.03;;;;;;;3.79;100.00;97418.19;5031899;28;20037;-58
2024/02/13 05:57:51;;;;;;;3.95;1.90;;;;;;;3.77;100.00;97426.44;5027605;28;20037;-57
2024/02/13 06:00:17;;;;;;;6.25;2.13;;;;;;;3.79;100.00;97417.41;5016235;28;20049;-59
2024/02/13 06:02:45;;;;;;;6.13;2.25;;;;;;;3.75;100.00;97428.50;5014118;28;20046;-57
2024/02/13 06:05:14;;;;;;;6.25;2.30;;;;;;;3.74;100.00;97426.03;5030786;28;20094;-57
2024/02/13 06:07:41;;;;;;;6.63;2.08;;;;;;;3.76;100.00;97432.03;5015818;28;20081;-58
2024/02/13 06:10:10;;;;;;;5.65;2.08;;;;;;;3.68;100.00;97437.59;5026299;28;20041;-59
2024/02/13 06:12:38;;;;;;;7.88;2.15;;;;;;;3.65;100.00;97433.47;5016979;28;20047;-56
2024/02/13 06:15:06;;;;;;;3.67;1.90;;;;;;;3.66;100.00;97443.16;5018725;28;20038;-59
2024/02/13 06:17:32;;;;;;;5.85;2.05;;;;;;;3.65;100.00;97449.53;5019703;28;21015;-58
2024/02/13 06:20:04;;;;;;;5.82;1.98;;;;;;;3.77;100.00;97455.91;5022797;28;20042;-58
2024/02/13 06:22:35;;;;;;;5.93;2.05;;;;;;;3.83;100.00;97453.44;5021941;28;20055;-57
2024/02/13 06:25:04;;;;;;;4.03;1.90;;;;;;;3.87;100.00;97458.16;5018638;28;20045;-59
2024/02/13 06:27:35;;;;;;;6.85;2.00;;;;;;;3.90;100.00;97456.94;5018569;28;20034;-58
2024/02/13 06:30:02;;;;;;;9.25;2.10;;;;;;;3.92;100.00;97465.59;5024857;28;20078;-58
2024/02/13 06:32:29;;;;;;;6.65;2.10;;;;;;;3.93;100.00;97467.25;5020280;28;20448;-56
2024/02/13 06:34:56;;;;;;;6.85;2.03;;;;;;;4.10;100.00;97470.34;5021970;28;20642;-59
2024/02/13 06:37:23;;;;;;;5.07;1.75;;;;;;;4.17;100.00;97475.69;5018654;28;20069;-58
2024/02/13 06:39:50;;;;;;;5.15;1.63;;;;;;;4.20;100.00;97477.94;5024509;28;20045;-58
2024/02/13 06:42:17;;;;;;;5.60;1.75;;;;;;;4.11;100.00;97476.50;5023128;28;20055;-57
2024/02/13 06:44:43;;;;;;;8.07;2.45;;;;;;;4.00;100.00;97472.59;5013704;28;20146;-58
2024/02/13 06:47:11;;;;;;;5.25;1.85;;;;;;;3.92;100.00;97481.69;5029170;28;20034;-57
2024/02/13 06:49:38;;;;;;;3.78;1.60;;;;;;;3.79;100.00;97493.19;5024080;28;20041;-57
2024/02/13 06:52:06;;;;;;;3.65;1.63;;;;;;;3.73;100.00;97496.72;5022146;28;20607;-58
2024/02/13 06:54:33;;;;;;;5.85;1.60;;;;;;;3.63;100.00;97494.44;5010413;28;20052;-58
2024/02/13 06:57:00;;;;;;;5.97;2.33;;;;;;;3.34;100.00;97491.06;5022861;28;20060;-57
2024/02/13 06:59:29;;;;;;;8.00;1.95;;;;;;;3.12;100.00;97504.59;5022505;28;20606;-57
2024/02/13 07:01:56;;;;;;;7.80;2.67;;;;;;;3.00;100.00;97515.06;5017437;28;20045;-59
2024/02/13 07:04:23;;;;;;;5.43;2.40;;;;;;;2.96;100.00;97511.97;5025725;28;20037;-56
2024/02/13 07:06:55;;;;;;;5.85;2.33;;;;;;;2.95;100.00;97517.50;5014156;28;20147;-58
2024/02/13 07:09:41;;;;;;;6.60;2.05;;;;;;;2.92;100.00;97523.25;5018029;28;20550;-57
2024/02/13 07:12:08;;;;;;;7.50;2.30;;;;;;;2.82;100.00;97523.59;5018065;28;20666;-58
2024/02/13 07:14:34;;;;;;;5.63;2.35;;;;;;;2.90;100.00;97528.78;5014623;28;20045;-59
2024/02/13 07:17:01;;;;;;;6.38;2.78;;;;;;;2.96;100.00;97536.03;5027550;28;20053;-57
2024/02/13 07:19:28;;;;;;;8.60;2.83;;;;;;;3.07;100.00;97540.00;5023650;28;20065;-54
2024/02/13 07:21:55;;;;;;;5.70;2.47;;;;;;;3.28;100.00;97540.06;5022391;28;20049;-57
2024/02/13 07:24:22;;;;;;;7.88;2.70;;;;;;;3.46;100.00;97536.84;5022217;28;20029;-59
2024/02/13 07:26:48;;;;;;;6.68;2.70;;;;;;;3.58;100.00;97529.84;5018516;28;20053;-58
2024/02/13 07:29:16;;;;;;;9.85;2.90;;;;;;;3.59;100.00;97530.66;5016883;28;20453;-57
2024/02/13 07:31:43;;;;;;;7.57;3.05;;;;;;;3.70;100.00;97538.13;5015778;28;20073;-59
2024/02/13 07:34:10;;;;;;;8.20;2.83;;;;;;;3.76;100.00;97534.63;5028387;28;20053;-59
2024/02/13 07:36:38;;;;;;;4.93;2.88;;;;;;;3.74;100.00;97539.38;5015992;28;20037;-58
2024/02/13 07:39:05;;;;;;;6.38;2.90;;;;;;;3.81;100.00;97544.72;5021582;28;20046;-59
2024/02/13 07:41:35;;;;;;;6.07;2.65;;;;;;;3.86;100.00;97538.75;5014001;28;20449;-59
2024/02/13 07:44:01;;;;;;;6.28;2.67;;;;;;;3.95;100.00;97545.56;5017441;28;20092;-57
2024/02/13 07:46:28;;;;;;;9.07;2.75;;;;;;;3.97;100.00;97545.34;5013388;28;20114;-58
2024/02/13 07:48:55;;;;;;;7.65;2.55;;;;;;;3.98;100.00;97553.19;5024740;28;20049;-59
2024/02/13 07:51:22;;;;;;;6.05;2.38;;;;;;;3.96;100.00;97547.22;5014021;28;20666;-60
2024/02/13 07:53:48;;;;;;;7.78;2.38;;;;;;;4.00;100.00;97547.63;5017346;28;20103;-57
2024/02/13 07:56:18;;;;;;;8.52;2.75;;;;;;;4.09;100.00;97551.75;5022191;28;20656;-59
2024/02/13 07:58:45;;;;;;;4.30;2.00;;;;;;;4.20;100.00;97547.63;5013629;28;20124;-58
2024/02/13 08:01:11;;;;;;;5.60;2.10;;;;;;;4.32;100.00;97538.97;5022083;28;20132;-59
2024/02/13 08:03:39;;;;;;;4.65;1.63;;;;;;;4.45;100.00;97546.19;5012677;28;20034;-58
2024/02/13 08:06:06;;;;;;;6.82;1.67;;;;;;;4.61;100.00;97553.78;5021310;28;20809;-58
2024/02/13 08:08:33;;;;;;;8.32;1.63;;;;;;;4.73;100.00;97555.81;5022190;28;20049;-58
2024/02/13 08:10:59;;;;;;;6.90;1.38;;;;;;;4.82;100.00;97562.59;5017472;28;20120;-58
2024/02/13 08:13:26;;;;;;;6.35;1.67;;;;;;;4.89;100.00;97559.91;5015707;28;20037;-59
2024/02/13 08:15:52;;;;;;;3.78;1.30;;;;;;;4.83;100.00;97561.56;5006919;28;20460;-59
2024/02/13 08:18:19;;;;;;;5.38;1.60;;;;;;;4.87;100.00;97556.63;5023002;28;20084;-56
2024/02/13 08:20:46;;;;;;;6.72;1.40;;;;;;;4.83;100.00;97550.84;5023335;28;20041;-57
2024/02/13 08:23:12;;;;;;;4.00;1.30;;;;;;;4.81;100.00;97559.13;5019710;28;20037;-42
2024/02/13 08:25:40;;;;;;;8.25;1.98;;;;;;;4.84;100.00;97560.56;5017961;28;20460;-41
2024/02/13 08:28:10;;;;;;;5.55;1.42;;;;;;;5.00;100.00;97561.94;5011268;28;20422;-41
2024/02/13 08:30:36;;;;;;;5.00;1.20;;;;;;;5.07;100.00;97561.91;5017260;28;20687;-41
2024/02/13 08:33:04;;;;;;;3.97;1.20;;;;;;;5.13;100.00;97562.94;5019728;28;20055;-42
2024/02/13 08:35:31;;;;;;;4.20;1.10;;;;;;;5.18;100.00;97563.97;5022352;28;20086;-40
2024/02/13 08:37:58;;;;;;;2.63;1.20;;;;;;;5.39;100.00;97563.88;5021493;28;20060;-39
2024/02/13 08:40:24;;;;;;;7.03;1.05;;;;;;;5.62;100.00;97552.59;5018322;28;20518;-40
2024/02/13 08:42:52;;;;;;;3.22;1.25;;;;;;;5.81;100.00;97555.38;5018096;28;20041;-41
2024/02/13 08:45:20;;;;;;;2.60;1.20;;;;;;;5.84;100.00;97565.69;5026049;28;20045;-41
2024/02/13 08:47:48;;;;;;;3.90;1.05;;;;;;;5.86;100.00;97564.44;5023698;28;20038;-39
2024/02/13 08:50:15;;;;;;;3.95;1.15;;;;;;;5.81;100.00;97558.88;5025661;28;20046;-40
2024/02/13 08:52:42;;;;;;;3.10;1.30;;;;;;;5.95;100.00;97559.63;5017456;28;20120;-39
2024/02/13 08:55:09;;;;;;;5.00;1.50;;;;;;;6.11;100.00;97565.53;5018466;28;20041;-41
2024/02/13 08:57:35;;;;;;;4.47;1.05;;;;;;;5.98;100.00;97571.81;5013833;28;20041;-43
2024/02/13 09:00:03;;;;;;;5.97;1.20;;;;;;;6.19;100.00;97577.91;5017670;28;20049;-40
2024/02/13 09:02:31;;;;;;;4.57;1.10;;;;;;;6.14;100.00;97575.03;5021568;28;20053;-39
2024/02/13 09:04:57;;;;;;;3.22;1.20;;;;;;;6.16;100.00;97570.28;5021784;28;20049;-44
2024/02/13 09:07:24;;;;;;;7.55;1.50;;;;;;;6.13;100.00;97568.84;5004985;28;20042;-40
2024/02/13 09:09:50;;;;;;;3.65;1.20;;;;;;;5.98;100.00;97566.44;5016174;28;20052;-38
2024/02/13 09:12:19;;;;;;;7.78;1.45;;;;;;;6.01;100.00;97574.03;5015087;28;20045;-39
2024/02/13 09:14:46;;;;;;;5.70;1.90;;;;;;;6.01;100.00;97576.72;5011811;28;20553;-59
2024/02/13 09:17:13;;;;;;;6.47;1.70;;;;;;;6.15;100.00;97571.31;4998629;28;20155;-58
2024/02/13 09:19:42;;;;;;;3.97;1.13;;;;;;;6.27;100.00;97557.97;4997406;28;20045;-56
2024/02/13 09:22:09;;;;;;;3.95;1.20;;;;;;;6.13;100.00;97570.69;5006094;28;20049;-58
2024/02/13 09:24:37;;;;;;;3.55;1.27;;;;;;;6.19;100.00;97565.25;5019326;28;20412;-57
2024/02/13 09:27:04;;;;;;;4.38;1.20;;;;;;;6.25;100.00;97566.25;5014483;28;20040;-56
2024/02/13 09:29:30;;;;;;;4.65;1.10;;;;;;;6.33;100.00;97567.84;5016774;28;20139;-57
2024/02/13 09:31:57;;;;;;;4.18;1.02;;;;;;;6.53;100.00;97569.56;5006422;28;20044;-58
2024/02/13 09:34:23;;;;;;;3.10;0.88;;;;;;;6.67;100.00;97563.00;5019625;28;20053;-58
2024/02/13 09:36:50;;;;;;;4.47;0.95;;;;;;;6.86;100.00;97573.81;5007510;28;20045;-59
2024/02/13 09:39:17;;;;;;;3.47;0.90;;;;;;;6.90;100.00;97569.63;5021258;28;20752;-58
2024/02/13 09:41:43;;;;;;;4.35;1.30;;;;;;;7.05;100.00;97576.50;5024661;28;20045;-60
2024/02/13 09:44:12;;;;;;;3.03;0.77;;;;;;;7.06;100.00;97578.97;5021622;28;20099;-58
2024/02/13 09:46:41;;;;;;;5.20;1.05;;;;;;;6.90;100.00;97581.19;5022191;28;20202;-58
2024/02/13 09:49:12;;;;;;;3.80;0.90;;;;;;;6.73;100.00;97586.34;5022989;28;20050;-57
2024/02/13 09:51:40;;;;;;;6.00;1.27;;;;;;;6.74;100.00;97579.91;5022992;28;20625;-59
2024/02/13 09:54:08;;;;;;;6.70;1.25;;;;;;;6.83;100.00;97579.63;5026341;28;20087;-58
2024/02/13 09:56:35;;;;;;;5.53;0.90;;;;;;;6.92;100.00;97580.16;5020197;28;20041;-58
2024/02/13 09:59:03;;;;;;;1.83;0.93;;;;;;;6.98;100.00;97576.56;5017323;28;20060;-59
2024/02/13 10:01:31;;;;;;;2.03;0.90;;;;;;;6.99;100.00;97575.50;5023888;28;20042;-58
2024/02/13 10:03:59;;;;;;;9.82;1.20;;;;;;;7.10;100.00;97582.84;5023169;28;20052;-59
2024/02/13 10:06:27;;;;;;;1.95;0.73;;;;;;;7.18;100.00;97583.63;5020465;28;20038;-61
2024/02/13 10:08:54;;;;;;;4.38;0.93;;;;;;;7.12;100.00;97578.06;5022844;28;20073;-57
2024/02/13 10:11:31;;;;;;;1.10;0.63;;;;;;;7.23;100.00;97576.47;5016244;28;20117;-61
2024/02/13 10:13:57;;;;;;;3.25;1.15;;;;;;;7.51;100.00;97579.66;5019044;28;20107;-62
2024/02/13 10:16:27;;;;;;;2.40;1.05;;;;;;;7.68;100.00;97583.38;5024576;28;20127;-58
2024/02/13 10:18:57;;;;;;;5.90;0.65;;;;;;;8.06;96.36;97585.97;5022732;28;20056;-57
2024/02/13 10:21:29;;;;;;;0.98;0.45;;;;;;;7.93;92.14;97581.63;5024352;28;20512;-59
2024/02/13 10:24:06;;;;;;;4.43;0.68;;;;;;;7.95;90.99;97587.59;5028278;28;20042;-59
2024/02/13 10:26:34;;;;;;;1.00;0.50;;;;;;;8.02;91.81;97592.88;5020690;28;20048;-59
2024/02/13 10:29:01;;;;;;;5.68;0.73;;;;;;;8.02;89.82;97592.88;5023482;28;20493;-58
2024/02/13 10:31:34;;;;;;;6.35;0.60;;;;;;;7.94;95.26;97600.28;5017504;28;20116;-60
2024/02/13 10:34:07;;;;;;;1.63;0.60;;;;;;;7.93;97.37;97597.81;5022690;28;20064;-58
2024/02/13 10:36:42;;;;;;;4.78;0.77;;;;;;;7.92;88.31;97593.44;5021500;28;20053;-58
2024/02/13 10:39:12;;;;;;;2.33;0.43;;;;;;;8.14;87.64;97599.13;5018543;28;20052;-58
2024/02/13 10:41:45;;;;;;;2.38;0.52;;;;;;;8.32;82.02;97600.13;5017697;28;20038;-58
2024/02/13 10:44:16;;;;;;;0.85;0.38;;;;;;;8.34;81.53;97606.13;5021817;28;20071;-59
2024/02/13 10:46:44;;;;;;;1.50;0.60;;;;;;;8.29;82.80;97600.59;5023472;28;20045;-58
2024/02/13 10:49:31;;;;;;;2.20;0.47;;;;;;;8.20;86.26;97606.31;5027070;28;20048;-59
2024/02/13 10:51:59;;;;;;;2.72;0.70;;;;;;;8.28;95.13;97605.16;5017922;28;20049;-59
2024/02/13 10:54:26;;;;;;;1.63;0.60;;;;;;;8.22;98.20;97600.69;5029341;28;20033;-59
2024/02/13 10:56:54;;;;;;;8.75;1.10;;;;;;;8.52;98.87;97605.19;5024300;28;20052;-58
2024/02/13 10:59:22;;;;;;;5.50;1.23;;;;;;;8.76;92.84;97607.13;5025630;28;20536;-59
2024/02/13 11:01:51;;;;;;;1.98;0.82;;;;;;;8.85;89.95;97605.72;5026803;28;20068;-60
2024/02/13 11:04:19;;;;;;;3.50;0.82;;;;;;;9.02;87.77;97607.69;5025190;28;20819;-60
2024/02/13 11:06:46;;;;;;;3.13;0.75;;;;;;;8.57;87.55;97610.75;5018623;28;20042;-59
2024/02/13 11:09:13;;;;;;;2.72;0.57;;;;;;;8.64;80.46;97601.72;5027555;28;20049;-59
2024/02/13 11:11:44;;;;;;;3.05;0.90;;;;;;;8.59;82.84;97599.72;5023375;28;20063;-56
2024/02/13 11:14:21;;;;;;;3.70;0.60;;;;;;;8.63;80.81;97610.88;5023849;28;20048;-59
2024/02/13 11:17:00;;;;;;;2.55;0.50;;;;;;;8.43;80.00;97607.41;5013441;28;20046;-58
2024/02/13 11:19:41;;;;;;;4.30;0.60;;;;;;;8.69;78.59;97608.06;5018849;28;20037;-58
2024/02/13 11:22:15;;;;;;;1.95;0.65;;;;;;;8.59;81.82;97607.84;5012035;28;20509;-58
2024/02/13 11:24:52;;;;;;;0.80;0.40;;;;;;;8.64;79.68;97609.81;5017107;28;20056;-56
2024/02/13 11:27:28;;;;;;;2.88;0.60;;;;;;;8.78;76.03;97610.41;5014205;28;20038;-60
2024/02/13 11:29:58;;;;;;;1.52;0.55;;;;;;;8.00;78.47;97605.78;5017388;28;20128;-59
2024/02/13 11:32:32;;;;;;;3.25;0.70;;;;;;;8.14;76.99;97604.53;5016049;28;20056;-58
2024/02/13 11:34:59;;;;;;;;;;;;;;;8.13;77.95;97599.38;5021344;28;20061;-59
2024/02/13 11:37:30;;;;;;;1.08;0.40;;;;;;;7.79;77.44;97595.28;5019655;28;19924;-58
2024/02/13 11:39:57;;;;;;;1.20;0.52;;;;;;;7.65;78.21;97600.03;5018826;28;20045;-58